Time;durP1;ratioP1;P1;durP2;ratioP2;P2;SDS_P1;SDS_P2;PMS_P1;PMS_P2;Temp;Humidity;BMP_temperature;BMP_pressure;BME280_temperature;BME280_humidity;BME280_pressure;Samples;Min_cycle;Max_cycle;Signal;HPM_P1;HPM_P2
2023/09/26 00:00:41;;;;;;;5.47;3.25;;;10.40;93.80;;;;;;4987846;28;20022;-73
2023/09/26 00:03:07;;;;;;;5.20;3.30;;;10.40;93.90;;;;;;4990111;28;20038;-74
2023/09/26 00:05:33;;;;;;;6.63;3.28;;;10.40;93.70;;;;;;4988365;28;20467;-73
2023/09/26 00:08:03;;;;;;;5.53;3.33;;;10.50;93.80;;;;;;4990353;28;20042;-73
2023/09/26 00:10:29;;;;;;;7.35;3.80;;;10.40;93.70;;;;;;4992801;28;20030;-74
2023/09/26 00:12:54;;;;;;;5.30;3.70;;;10.40;93.90;;;;;;4991120;28;20046;-73
2023/09/26 00:15:20;;;;;;;6.60;3.85;;;10.40;93.90;;;;;;4986590;28;20034;-73
2023/09/26 00:17:45;;;;;;;5.13;3.47;;;10.40;94.00;;;;;;4996376;28;20113;-73
2023/09/26 00:20:15;;;;;;;7.18;3.47;;;10.40;94.00;;;;;;4986079;28;20030;-73
2023/09/26 00:22:40;;;;;;;7.47;3.95;;;10.40;94.00;;;;;;4987272;28;20038;-73
2023/09/26 00:25:06;;;;;;;6.47;3.55;;;10.40;93.90;;;;;;4984688;28;20538;-73
2023/09/26 00:27:32;;;;;;;6.35;3.75;;;10.40;93.70;;;;;;4982501;28;20057;-73
2023/09/26 00:29:57;;;;;;;4.53;3.08;;;10.50;93.70;;;;;;4986190;28;20084;-74
2023/09/26 00:32:24;;;;;;;6.03;3.97;;;10.50;93.60;;;;;;4983447;28;20060;-73
2023/09/26 00:34:49;;;;;;;6.47;3.55;;;10.50;93.60;;;;;;4987516;28;20158;-73
2023/09/26 00:37:15;;;;;;;5.32;3.95;;;10.50;93.60;;;;;;4982362;28;20115;-74
2023/09/26 00:39:40;;;;;;;8.55;3.80;;;10.50;93.60;;;;;;4986245;28;20058;-73
2023/09/26 00:42:05;;;;;;;5.82;3.85;;;10.50;93.60;;;;;;4987672;28;20037;-74
2023/09/26 00:44:31;;;;;;;5.97;3.60;;;10.40;93.70;;;;;;4982845;28;20092;-73
2023/09/26 00:46:59;;;;;;;5.88;3.70;;;10.40;93.60;;;;;;4983690;28;20037;-74
2023/09/26 00:49:27;;;;;;;6.03;3.38;;;10.40;93.60;;;;;;4983481;28;20046;-73
2023/09/26 00:51:54;;;;;;;5.75;3.63;;;10.50;93.80;;;;;;4992558;28;20125;-73
2023/09/26 00:54:20;;;;;;;7.50;3.67;;;10.40;93.70;;;;;;4989713;28;20034;-73
2023/09/26 00:56:45;;;;;;;7.03;3.95;;;10.40;93.80;;;;;;4989472;28;20081;-74
2023/09/26 00:59:11;;;;;;;6.70;3.90;;;10.30;93.80;;;;;;4982097;28;20038;-73
2023/09/26 01:01:38;;;;;;;6.47;3.65;;;10.30;93.80;;;;;;4985398;28;20035;-73
2023/09/26 01:04:04;;;;;;;5.40;3.78;;;10.50;93.80;;;;;;4989754;28;20019;-74
2023/09/26 01:06:30;;;;;;;5.28;3.50;;;10.40;93.60;;;;;;4988328;28;20387;-73
2023/09/26 01:08:56;;;;;;;6.18;3.63;;;10.30;93.70;;;;;;4983461;28;20037;-73
2023/09/26 01:11:21;;;;;;;7.53;3.70;;;10.40;93.80;;;;;;4987130;28;20435;-73
2023/09/26 01:13:47;;;;;;;5.57;3.53;;;10.30;93.70;;;;;;4986867;28;20517;-73
2023/09/26 01:16:15;;;;;;;5.57;4.00;;;10.30;93.90;;;;;;4989224;28;20530;-74
2023/09/26 01:18:40;;;;;;;7.18;3.58;;;10.30;93.90;;;;;;4990566;28;20026;-73
2023/09/26 01:21:06;;;;;;;6.18;3.38;;;10.40;93.90;;;;;;4992438;28;20045;-73
2023/09/26 01:23:32;;;;;;;9.05;3.60;;;10.30;93.90;;;;;;4994334;28;20042;-74
2023/09/26 01:25:58;;;;;;;4.80;3.35;;;10.30;93.90;;;;;;4993412;28;20049;-74
2023/09/26 01:28:23;;;;;;;7.53;3.90;;;10.30;94.00;;;;;;4984269;28;20042;-72
2023/09/26 01:30:49;;;;;;;6.45;3.50;;;10.20;94.10;;;;;;4984040;28;20043;-74
2023/09/26 01:33:19;;;;;;;5.85;3.70;;;10.10;94.20;;;;;;4991519;28;20045;-73
2023/09/26 01:35:45;;;;;;;8.02;3.75;;;10.10;94.20;;;;;;4987144;28;20084;-73
2023/09/26 01:38:10;;;;;;;6.70;3.55;;;10.10;94.30;;;;;;4992749;28;20034;-73
2023/09/26 01:40:36;;;;;;;6.57;3.97;;;10.00;94.40;;;;;;4991123;28;20368;-74
2023/09/26 01:43:02;;;;;;;6.10;4.10;;;10.00;94.50;;;;;;4988573;28;20506;-73
2023/09/26 01:45:27;;;;;;;6.40;3.67;;;10.00;94.30;;;;;;4992933;28;20030;-74
2023/09/26 01:47:53;;;;;;;8.13;4.22;;;9.90;94.30;;;;;;4991877;28;20084;-73
2023/09/26 01:50:20;;;;;;;5.43;3.78;;;9.90;94.60;;;;;;4990526;28;20038;-74
2023/09/26 01:52:46;;;;;;;6.90;3.92;;;10.00;94.60;;;;;;4990282;28;20425;-73
2023/09/26 01:55:16;;;;;;;5.78;3.50;;;9.90;94.60;;;;;;4989222;28;20042;-73
2023/09/26 01:57:41;;;;;;;6.38;3.95;;;9.90;94.80;;;;;;4985975;28;20034;-73
2023/09/26 02:00:10;;;;;;;8.20;4.20;;;9.80;94.70;;;;;;4995669;28;20478;-73
2023/09/26 02:02:40;;;;;;;6.18;4.20;;;9.80;94.90;;;;;;4992780;28;20236;-73
2023/09/26 02:05:07;;;;;;;6.05;4.25;;;9.70;94.80;;;;;;4986519;28;20372;-74
2023/09/26 02:07:33;;;;;;;5.63;3.90;;;9.80;94.90;;;;;;4991245;28;20530;-74
2023/09/26 02:09:59;;;;;;;5.80;3.78;;;9.80;95.00;;;;;;4993139;28;20042;-73
2023/09/26 02:12:24;;;;;;;6.75;4.03;;;9.70;94.80;;;;;;4985096;28;20030;-73
2023/09/26 02:14:50;;;;;;;6.47;3.90;;;9.70;95.00;;;;;;4988915;28;20042;-73
2023/09/26 02:17:15;;;;;;;6.80;4.43;;;9.70;94.90;;;;;;4988734;28;20034;-73
2023/09/26 02:19:41;;;;;;;7.13;4.57;;;9.70;94.80;;;;;;4987817;28;20046;-73
2023/09/26 02:22:07;;;;;;;6.82;4.30;;;9.80;94.90;;;;;;4986506;28;20041;-75
2023/09/26 02:24:32;;;;;;;7.18;4.15;;;9.80;94.60;;;;;;4986746;28;20039;-74
2023/09/26 02:26:58;;;;;;;9.52;4.18;;;9.80;94.50;;;;;;4988928;28;20034;-73
2023/09/26 02:29:24;;;;;;;8.43;4.65;;;9.90;94.60;;;;;;4984946;28;20034;-73
2023/09/26 02:31:49;;;;;;;6.68;4.40;;;9.80;94.20;;;;;;4981523;28;20038;-73
2023/09/26 02:34:15;;;;;;;6.15;4.32;;;9.80;94.20;;;;;;4986788;28;20038;-73
2023/09/26 02:36:40;;;;;;;7.10;4.60;;;9.80;94.20;;;;;;4992896;28;20088;-73
2023/09/26 02:39:06;;;;;;;6.35;4.05;;;9.80;94.20;;;;;;4983721;28;20113;-73
2023/09/26 02:41:31;;;;;;;6.20;3.63;;;9.70;94.20;;;;;;4987003;28;20054;-73
2023/09/26 02:43:59;;;;;;;7.53;3.78;;;9.70;94.40;;;;;;4985830;28;20058;-74
2023/09/26 02:46:24;;;;;;;6.72;4.47;;;9.70;94.40;;;;;;4985974;28;20102;-74
2023/09/26 02:48:50;;;;;;;7.13;4.10;;;9.80;94.40;;;;;;4987197;28;20137;-73
2023/09/26 02:51:15;;;;;;;5.93;4.00;;;9.70;94.30;;;;;;4978888;28;20397;-73
2023/09/26 02:53:40;;;;;;;6.18;4.20;;;9.70;94.30;;;;;;4982249;28;20034;-74
2023/09/26 02:56:10;;;;;;;6.00;3.65;;;9.70;94.60;;;;;;4989128;28;20066;-73
2023/09/26 02:58:35;;;;;;;8.02;4.90;;;9.60;94.50;;;;;;4982917;28;20076;-74
2023/09/26 03:01:01;;;;;;;6.13;3.88;;;9.60;94.70;;;;;;4989632;28;20458;-73
2023/09/26 03:03:27;;;;;;;5.38;4.03;;;9.60;94.70;;;;;;4986977;28;20038;-73
2023/09/26 03:05:56;;;;;;;6.28;4.05;;;9.60;94.70;;;;;;4991567;28;20030;-73
2023/09/26 03:08:22;;;;;;;6.30;3.80;;;9.60;94.60;;;;;;4987557;28;20030;-73
2023/09/26 03:10:47;;;;;;;7.05;4.60;;;9.70;94.50;;;;;;4988219;28;20483;-73
2023/09/26 03:13:13;;;;;;;7.25;4.32;;;9.70;94.60;;;;;;4982741;28;20040;-73
2023/09/26 03:15:38;;;;;;;7.03;4.53;;;9.60;94.40;;;;;;4987809;28;20466;-73
2023/09/26 03:18:05;;;;;;;6.53;4.25;;;9.60;94.50;;;;;;4982917;28;20414;-74
2023/09/26 03:20:31;;;;;;;7.45;3.88;;;9.50;94.70;;;;;;4985729;28;20502;-72
2023/09/26 03:22:56;;;;;;;7.25;4.55;;;9.40;94.90;;;;;;4987143;28;20038;-73
2023/09/26 03:25:22;;;;;;;6.03;4.15;;;9.50;95.00;;;;;;4988086;28;20446;-73
2023/09/26 03:27:50;;;;;;;6.90;3.95;;;9.50;95.00;;;;;;4982209;28;20136;-74
2023/09/26 03:30:15;;;;;;;7.15;4.28;;;9.50;95.20;;;;;;4984271;28;20044;-73
2023/09/26 03:32:41;;;;;;;7.07;4.32;;;9.40;95.20;;;;;;4985326;28;20030;-74
2023/09/26 03:35:08;;;;;;;6.53;4.10;;;9.40;95.30;;;;;;4987200;28;20443;-73
2023/09/26 03:37:33;;;;;;;8.32;4.43;;;9.30;95.10;;;;;;4989891;28;20438;-73
2023/09/26 03:39:59;;;;;;;6.38;4.10;;;9.40;95.40;;;;;;4984811;28;20066;-73
2023/09/26 03:42:24;;;;;;;8.27;4.53;;;9.40;95.30;;;;;;4988617;28;20041;-73
2023/09/26 03:44:50;;;;;;;7.53;3.95;;;9.30;95.30;;;;;;4986550;28;20073;-73
2023/09/26 03:47:16;;;;;;;8.23;5.10;;;9.30;95.40;;;;;;4980652;28;20030;-73
2023/09/26 03:49:41;;;;;;;8.48;4.65;;;9.40;95.30;;;;;;4986325;28;20041;-73
2023/09/26 03:52:07;;;;;;;7.97;4.90;;;9.40;95.30;;;;;;4987748;28;20088;-72
2023/09/26 03:54:34;;;;;;;8.50;4.63;;;9.40;95.20;;;;;;4986169;28;20113;-73
2023/09/26 03:57:01;;;;;;;6.95;4.68;;;9.40;95.10;;;;;;4994984;28;20053;-73
2023/09/26 03:59:26;;;;;;;11.05;5.45;;;9.30;95.10;;;;;;4979269;28;20018;-73
2023/09/26 04:01:52;;;;;;;13.40;5.35;;;9.40;95.10;;;;;;4976276;28;20022;-73
2023/09/26 04:04:18;;;;;;;8.43;5.00;;;9.40;95.00;;;;;;4979719;28;20072;-73
2023/09/26 04:06:43;;;;;;;6.60;4.47;;;9.40;95.00;;;;;;4984771;28;20065;-73
2023/09/26 04:09:09;;;;;;;7.15;5.13;;;9.40;94.90;;;;;;4983104;28;20464;-73
2023/09/26 04:11:35;;;;;;;7.15;4.57;;;9.50;94.80;;;;;;4975813;28;20038;-75
2023/09/26 04:14:00;;;;;;;8.80;5.45;;;9.60;94.70;;;;;;4976530;28;20122;-73
2023/09/26 04:16:25;;;;;;;11.23;5.65;;;9.50;94.60;;;;;;4985827;28;20088;-73
2023/09/26 04:18:51;;;;;;;8.25;4.90;;;9.50;94.60;;;;;;4985000;28;20076;-73
2023/09/26 04:21:16;;;;;;;7.72;5.25;;;9.60;94.50;;;;;;4984107;28;20042;-74
2023/09/26 04:23:42;;;;;;;7.22;4.93;;;9.60;94.30;;;;;;4981860;28;20035;-74
2023/09/26 04:26:14;;;;;;;7.20;4.75;;;9.60;94.30;;;;;;4983826;28;20030;-73
2023/09/26 04:28:40;;;;;;;7.55;4.57;;;9.70;94.30;;;;;;4983284;28;20042;-70
2023/09/26 04:31:16;;;;;;;7.38;4.45;;;9.70;94.10;;;;;;4985547;28;20070;-69
2023/09/26 04:33:41;;;;;;;7.53;4.82;;;9.70;93.90;;;;;;4988792;28;20030;-69
2023/09/26 04:36:07;;;;;;;8.73;4.80;;;9.70;93.90;;;;;;4986564;28;20439;-68
2023/09/26 04:38:32;;;;;;;6.13;4.22;;;9.70;93.80;;;;;;4986429;28;20042;-69
2023/09/26 04:41:04;;;;;;;6.70;4.85;;;9.60;93.80;;;;;;4988706;28;20058;-69
2023/09/26 04:43:32;;;;;;;7.03;4.80;;;9.60;93.80;;;;;;4985364;28;20022;-69
2023/09/26 04:45:58;;;;;;;6.82;4.55;;;9.60;93.90;;;;;;4987473;28;20069;-70
2023/09/26 04:48:23;;;;;;;6.88;4.20;;;9.60;93.80;;;;;;4992641;28;20030;-69
2023/09/26 04:50:49;;;;;;;6.95;4.30;;;9.60;93.90;;;;;;4992579;28;20138;-69
2023/09/26 04:53:15;;;;;;;7.00;4.38;;;9.50;93.90;;;;;;4990440;28;20117;-69
2023/09/26 04:55:41;;;;;;;8.43;4.45;;;9.50;94.00;;;;;;4988810;28;20105;-69
2023/09/26 04:58:07;;;;;;;6.63;4.40;;;9.40;94.10;;;;;;4985986;28;20455;-69
2023/09/26 05:00:33;;;;;;;8.30;4.80;;;9.40;94.20;;;;;;4994086;28;20114;-68
2023/09/26 05:02:59;;;;;;;9.65;5.05;;;9.40;94.20;;;;;;4992194;28;20041;-69
2023/09/26 05:05:24;;;;;;;8.27;4.90;;;9.50;94.30;;;;;;4990347;28;20467;-70
2023/09/26 05:07:50;;;;;;;8.05;4.30;;;9.40;94.20;;;;;;4990516;28;20121;-68
2023/09/26 05:10:16;;;;;;;9.20;4.63;;;9.50;94.20;;;;;;4987109;28;20041;-68
2023/09/26 05:12:42;;;;;;;8.40;4.30;;;9.40;94.10;;;;;;4985315;28;20043;-68
2023/09/26 05:15:13;;;;;;;8.48;5.35;;;9.40;94.20;;;;;;4988034;28;20041;-68
2023/09/26 05:17:40;;;;;;;11.02;5.07;;;9.40;94.10;;;;;;4997183;28;20034;-67
2023/09/26 05:20:10;;;;;;;9.00;5.40;;;9.50;94.10;;;;;;4992610;28;20037;-67
2023/09/26 05:22:35;;;;;;;7.70;5.28;;;9.40;94.10;;;;;;4991108;28;20052;-67
2023/09/26 05:25:01;;;;;;;8.40;5.25;;;9.50;94.10;;;;;;4998372;28;20018;-67
2023/09/26 05:27:26;;;;;;;10.75;5.40;;;9.50;94.20;;;;;;4984921;28;20030;-67
2023/09/26 05:29:52;;;;;;;10.88;5.47;;;9.50;94.20;;;;;;4984493;28;20031;-69
2023/09/26 05:32:17;;;;;;;9.45;5.50;;;9.60;94.00;;;;;;4992421;28;20044;-69
2023/09/26 05:34:42;;;;;;;8.20;5.68;;;9.70;93.80;;;;;;4994400;28;20057;-67
2023/09/26 05:37:09;;;;;;;8.88;5.63;;;9.90;93.40;;;;;;4989004;28;20109;-67
2023/09/26 05:39:34;;;;;;;8.73;5.07;;;10.00;93.20;;;;;;4993199;28;20046;-67
2023/09/26 05:42:01;;;;;;;7.18;5.03;;;10.00;92.90;;;;;;4991747;28;20367;-67
2023/09/26 05:44:26;;;;;;;8.68;5.40;;;10.00;92.90;;;;;;4989031;28;20524;-68
2023/09/26 05:46:52;;;;;;;9.75;5.35;;;10.10;92.70;;;;;;4978688;28;20062;-68
2023/09/26 05:49:18;;;;;;;7.25;4.97;;;10.10;92.50;;;;;;4978824;28;20526;-72
2023/09/26 05:51:43;;;;;;;7.82;4.93;;;10.20;92.30;;;;;;4990516;28;20042;-68
2023/09/26 05:54:08;;;;;;;9.98;4.88;;;10.20;92.30;;;;;;4988670;28;20072;-67
2023/09/26 05:56:34;;;;;;;7.10;4.43;;;10.20;92.10;;;;;;4987480;28;20030;-68
2023/09/26 05:58:59;;;;;;;6.68;4.28;;;10.30;92.20;;;;;;4984028;28;20032;-68
2023/09/26 06:01:25;;;;;;;8.10;4.47;;;10.40;92.10;;;;;;4984949;28;20043;-68
2023/09/26 06:03:50;;;;;;;7.80;4.40;;;10.40;92.00;;;;;;4984098;28;20027;-68
2023/09/26 06:06:16;;;;;;;6.95;4.30;;;10.50;91.90;;;;;;4987741;28;20034;-68
2023/09/26 06:08:41;;;;;;;7.32;4.32;;;10.50;91.90;;;;;;4985856;28;20034;-68
2023/09/26 06:11:09;;;;;;;7.20;4.40;;;10.50;91.80;;;;;;4990865;28;20395;-69
2023/09/26 06:13:34;;;;;;;6.72;4.43;;;10.60;91.70;;;;;;4989183;28;20541;-68
2023/09/26 06:16:04;;;;;;;7.05;3.75;;;10.60;91.50;;;;;;4990344;28;20030;-68
2023/09/26 06:18:30;;;;;;;6.32;4.25;;;10.60;91.70;;;;;;4990921;28;20037;-67
2023/09/26 06:20:55;;;;;;;6.60;4.10;;;10.70;91.70;;;;;;4991011;28;20387;-68
2023/09/26 06:23:21;;;;;;;7.38;3.97;;;10.70;91.70;;;;;;4987370;28;20112;-68
2023/09/26 06:25:56;;;;;;;7.60;4.05;;;10.80;91.50;;;;;;4992354;28;20494;-67
2023/09/26 06:28:21;;;;;;;7.85;4.05;;;10.90;91.10;;;;;;4980785;28;20030;-68
2023/09/26 06:30:47;;;;;;;5.95;3.90;;;11.00;91.20;;;;;;4990533;28;20073;-67
2023/09/26 06:33:12;;;;;;;5.35;4.05;;;11.10;91.00;;;;;;4992237;28;20113;-68
2023/09/26 06:35:38;;;;;;;5.90;4.18;;;11.20;90.70;;;;;;4987365;28;20045;-68
2023/09/26 06:38:03;;;;;;;7.88;3.80;;;11.30;90.50;;;;;;4987837;28;20030;-67
2023/09/26 06:40:29;;;;;;;6.00;3.78;;;11.40;90.10;;;;;;4993223;28;20058;-68
2023/09/26 06:42:56;;;;;;;10.88;3.70;;;11.50;89.80;;;;;;4988497;28;20041;-67
2023/09/26 06:45:22;;;;;;;5.50;3.63;;;11.60;89.80;;;;;;4986843;28;20044;-68
2023/09/26 06:47:48;;;;;;;6.63;3.58;;;11.70;89.80;;;;;;4983146;28;20056;-68
2023/09/26 06:50:13;;;;;;;7.90;3.95;;;11.80;89.20;;;;;;4992675;28;20041;-68
2023/09/26 06:52:39;;;;;;;5.60;3.42;;;12.00;88.60;;;;;;4984325;28;20129;-70
2023/09/26 06:55:10;;;;;;;7.47;3.20;;;12.00;88.90;;;;;;4986770;28;20050;-69
2023/09/26 06:57:38;;;;;;;7.35;3.60;;;12.10;88.80;;;;;;4996925;28;20080;-67
2023/09/26 07:00:16;;;;;;;5.85;3.58;;;12.10;88.90;;;;;;4985225;28;20056;-69
2023/09/26 07:02:46;;;;;;;6.00;3.55;;;12.30;88.20;;;;;;4988425;28;20074;-67
2023/09/26 07:05:11;;;;;;;6.78;3.45;;;12.50;87.40;;;;;;4990315;28;20033;-68
2023/09/26 07:07:38;;;;;;;5.68;3.00;;;12.60;87.50;;;;;;4993983;28;20042;-69
2023/09/26 07:10:05;;;;;;;5.47;3.35;;;12.80;87.00;;;;;;4993571;28;20383;-68
2023/09/26 07:12:30;;;;;;;8.07;3.00;;;12.90;86.70;;;;;;4988454;28;20523;-68
2023/09/26 07:14:56;;;;;;;4.78;2.83;;;13.00;86.20;;;;;;4987725;28;20089;-70
2023/09/26 07:17:22;;;;;;;5.63;3.58;;;13.20;85.80;;;;;;4986174;28;20426;-68
2023/09/26 07:19:49;;;;;;;5.00;2.88;;;13.40;85.50;;;;;;4987940;28;20041;-68
2023/09/26 07:22:14;;;;;;;4.68;2.70;;;13.50;85.50;;;;;;4985498;28;20070;-69
2023/09/26 07:24:40;;;;;;;4.63;2.63;;;13.70;85.10;;;;;;4995507;28;20046;-68
2023/09/26 07:27:07;;;;;;;4.78;2.47;;;13.80;85.80;;;;;;4987225;28;20058;-70
2023/09/26 07:29:32;;;;;;;4.65;2.92;;;13.80;85.60;;;;;;4984773;28;20033;-68
2023/09/26 07:31:58;;;;;;;3.85;2.25;;;13.90;85.00;;;;;;4985103;28;20042;-69
2023/09/26 07:34:23;;;;;;;5.68;3.30;;;14.00;85.30;;;;;;4990492;28;20027;-68
2023/09/26 07:36:49;;;;;;;6.90;2.80;;;14.10;84.30;;;;;;4988723;28;20034;-68
2023/09/26 07:39:15;;;;;;;4.57;2.47;;;14.10;84.90;;;;;;4990481;28;20399;-68
2023/09/26 07:41:40;;;;;;;4.50;2.55;;;14.10;84.30;;;;;;4988115;28;20125;-68
2023/09/26 07:44:06;;;;;;;5.07;2.90;;;14.30;84.40;;;;;;4980914;28;20046;-72
2023/09/26 07:46:31;;;;;;;6.32;2.53;;;14.30;84.80;;;;;;4987598;28;20113;-68
2023/09/26 07:48:57;;;;;;;3.80;2.42;;;14.40;84.70;;;;;;4989555;28;20046;-68
2023/09/26 07:51:22;;;;;;;4.38;2.70;;;14.50;84.60;;;;;;4991299;28;20114;-68
2023/09/26 07:53:48;;;;;;;4.80;2.72;;;14.60;84.60;;;;;;4991539;28;20298;-68
2023/09/26 07:56:13;;;;;;;4.93;2.45;;;14.90;84.00;;;;;;4989464;28;20072;-68
2023/09/26 07:58:39;;;;;;;5.00;2.40;;;14.90;84.40;;;;;;4985150;28;20037;-68
2023/09/26 08:01:09;;;;;;;5.85;2.45;;;15.00;83.40;;;;;;4985555;28;20042;-70
2023/09/26 08:03:38;;;;;;;4.05;2.30;;;15.30;82.40;;;;;;4978237;28;20038;-68
2023/09/26 08:06:05;;;;;;;4.70;2.40;;;15.50;82.00;;;;;;4991549;28;20030;-69
2023/09/26 08:08:31;;;;;;;4.75;2.47;;;15.90;81.40;;;;;;4983487;28;20106;-68
2023/09/26 08:11:05;;;;;;;3.38;2.13;;;16.10;81.40;;;;;;4989340;28;20045;-68
2023/09/26 08:13:31;;;;;;;3.47;2.10;;;16.20;81.40;;;;;;4988251;28;20395;-68
2023/09/26 08:15:57;;;;;;;4.57;2.15;;;16.30;80.50;;;;;;4987779;28;20038;-68
2023/09/26 08:18:23;;;;;;;5.30;1.90;;;16.60;79.00;;;;;;4989270;28;20363;-68
2023/09/26 08:20:55;;;;;;;3.70;1.90;;;16.80;79.50;;;;;;4987667;28;20026;-68
2023/09/26 08:23:20;;;;;;;3.20;1.83;;;17.00;79.20;;;;;;4995452;28;20022;-68
2023/09/26 08:25:46;;;;;;;3.75;2.05;;;17.10;77.70;;;;;;4990978;28;20041;-68
2023/09/26 08:28:11;;;;;;;3.45;2.08;;;17.30;77.50;;;;;;4983785;28;20080;-68
2023/09/26 08:30:37;;;;;;;4.13;2.10;;;17.40;77.00;;;;;;4990632;28;20046;-68
2023/09/26 08:33:02;;;;;;;3.70;1.90;;;17.40;76.20;;;;;;4986174;28;20097;-70
2023/09/26 08:35:30;;;;;;;2.70;1.95;;;17.60;76.70;;;;;;4987549;28;20035;-69
2023/09/26 08:37:56;;;;;;;4.15;1.77;;;17.60;78.00;;;;;;4993924;28;20375;-68
2023/09/26 08:40:25;;;;;;;5.43;1.83;;;17.60;78.50;;;;;;4988126;28;20049;-68
2023/09/26 08:42:55;;;;;;;2.58;1.90;;;17.60;77.10;;;;;;4986924;28;20368;-69
2023/09/26 08:45:21;;;;;;;5.90;2.47;;;17.80;77.70;;;;;;4989295;28;20026;-68
2023/09/26 08:47:48;;;;;;;3.60;2.17;;;17.80;77.20;;;;;;4990490;28;20026;-68
2023/09/26 08:50:13;;;;;;;4.03;2.00;;;17.70;78.30;;;;;;4983277;28;20030;-68
2023/09/26 08:52:39;;;;;;;3.92;2.00;;;18.00;79.00;;;;;;4983572;28;20399;-68
2023/09/26 08:55:05;;;;;;;4.07;2.17;;;18.10;76.90;;;;;;4990382;28;20048;-70
2023/09/26 08:57:32;;;;;;;5.20;2.00;;;18.40;76.90;;;;;;4984461;28;20039;-69
2023/09/26 09:00:00;;;;;;;5.68;2.13;;;18.60;76.60;;;;;;4989506;28;20049;-69
2023/09/26 09:02:26;;;;;;;4.32;2.20;;;19.00;75.90;;;;;;4989225;28;20030;-69
2023/09/26 09:04:52;;;;;;;3.42;1.75;;;19.20;75.40;;;;;;4983808;28;20045;-68
2023/09/26 09:07:17;;;;;;;3.58;2.15;;;19.20;74.30;;;;;;4983796;28;20093;-69
2023/09/26 09:10:12;;;;;;;3.58;1.98;;;19.40;74.30;;;;;;4984366;28;20118;-69
2023/09/26 09:12:40;;;;;;;6.00;2.17;;;19.60;74.70;;;;;;4988520;28;20030;-69
2023/09/26 09:15:28;;;;;;;4.95;2.00;;;19.70;72.80;;;;;;4987792;28;20070;-69
2023/09/26 09:17:53;;;;;;;5.45;2.10;;;19.50;72.80;;;;;;4989845;28;20081;-68
2023/09/26 09:20:31;;;;;;;4.60;1.90;;;19.80;74.20;;;;;;4988578;28;20049;-70
2023/09/26 09:23:07;;;;;;;2.78;1.95;;;20.20;72.40;;;;;;4988183;28;20027;-68
2023/09/26 09:25:34;;;;;;;4.45;2.05;;;20.60;70.90;;;;;;4984500;28;20038;-68
2023/09/26 09:28:01;;;;;;;2.72;1.70;;;20.90;70.20;;;;;;4988843;28;20033;-68
2023/09/26 09:30:26;;;;;;;3.25;1.70;;;20.70;70.50;;;;;;4989652;28;20053;-68
2023/09/26 09:32:52;;;;;;;2.72;1.38;;;20.50;68.90;;;;;;4989465;28;20479;-68
2023/09/26 09:35:18;;;;;;;2.42;1.30;;;20.30;71.80;;;;;;4994669;28;20027;-69
2023/09/26 09:37:47;;;;;;;2.70;1.60;;;20.50;70.80;;;;;;4990543;28;20360;-70
2023/09/26 09:40:22;;;;;;;4.20;1.60;;;20.40;70.10;;;;;;4993890;28;20046;-68
2023/09/26 09:42:49;;;;;;;2.28;1.55;;;20.60;69.40;;;;;;4987741;28;20034;-69
2023/09/26 09:45:15;;;;;;;2.95;1.33;;;21.00;69.20;;;;;;4992220;28;20027;-71
2023/09/26 09:47:43;;;;;;;4.63;1.75;;;21.20;69.20;;;;;;4987011;28;20090;-69
2023/09/26 09:50:11;;;;;;;4.15;1.42;;;21.00;66.70;;;;;;4993461;28;20066;-69
2023/09/26 09:52:41;;;;;;;5.07;1.38;;;21.50;67.40;;;;;;4993410;28;20030;-69
2023/09/26 09:55:08;;;;;;;3.20;1.57;;;21.60;63.60;;;;;;4996737;28;20390;-69
2023/09/26 09:57:41;;;;;;;3.88;1.45;;;21.60;64.70;;;;;;4992985;28;20034;-68
2023/09/26 10:00:08;;;;;;;2.67;1.10;;;21.30;63.40;;;;;;4980698;28;20039;-69
2023/09/26 10:02:35;;;;;;;3.22;1.20;;;21.00;63.50;;;;;;4985781;28;20034;-70
2023/09/26 10:05:05;;;;;;;3.28;1.60;;;21.00;64.20;;;;;;4991627;28;20022;-68
2023/09/26 10:07:31;;;;;;;1.85;1.17;;;20.90;63.40;;;;;;4990590;28;20088;-68
2023/09/26 10:09:58;;;;;;;4.05;1.55;;;21.10;62.40;;;;;;4992823;28;20472;-70
2023/09/26 10:12:25;;;;;;;3.13;1.17;;;21.60;64.00;;;;;;4994680;28;20081;-72
2023/09/26 10:14:50;;;;;;;3.78;1.35;;;21.80;62.70;;;;;;4983946;28;20044;-70
2023/09/26 10:17:17;;;;;;;5.50;1.80;;;21.70;61.40;;;;;;4988622;28;20039;-70
2023/09/26 10:19:43;;;;;;;2.72;1.35;;;21.70;62.00;;;;;;4998289;28;20026;-69
2023/09/26 10:22:16;;;;;;;6.40;1.40;;;21.90;62.20;;;;;;4989673;28;20065;-69
2023/09/26 10:25:02;;;;;;;2.17;1.20;;;21.80;62.70;;;;;;4987650;28;20026;-69
2023/09/26 10:27:30;;;;;;;2.30;1.30;;;21.30;62.70;;;;;;4988509;28;20041;-69
2023/09/26 10:29:58;;;;;;;3.13;1.10;;;21.10;64.90;;;;;;4992745;28;20522;-69
2023/09/26 10:32:34;;;;;;;4.65;1.38;;;21.10;64.10;;;;;;4984980;28;20456;-69
2023/09/26 10:35:22;;;;;;;5.88;1.30;;;21.20;64.80;;;;;;4994139;28;20026;-69
2023/09/26 10:38:00;;;;;;;3.58;1.40;;;21.30;64.60;;;;;;4993010;28;20040;-70
2023/09/26 10:40:26;;;;;;;5.03;1.30;;;21.50;62.70;;;;;;4991157;28;20463;-69
2023/09/26 10:42:52;;;;;;;2.20;1.10;;;22.00;63.20;;;;;;4992869;28;20092;-69
2023/09/26 10:45:18;;;;;;;2.10;1.20;;;22.50;62.90;;;;;;4987848;28;20030;-69
2023/09/26 10:47:44;;;;;;;1.77;1.00;;;22.70;60.70;;;;;;4988797;28;20030;-69
2023/09/26 10:50:13;;;;;;;3.15;1.30;;;22.40;60.50;;;;;;4988288;28;20086;-69
2023/09/26 10:52:49;;;;;;;2.25;1.13;;;22.50;60.70;;;;;;4985525;28;20042;-69
2023/09/26 10:55:19;;;;;;;1.52;0.93;;;22.30;59.50;;;;;;4991438;28;20038;-70
2023/09/26 10:57:45;;;;;;;1.80;1.10;;;22.20;61.70;;;;;;4989179;28;20027;-69
2023/09/26 11:00:12;;;;;;;4.40;1.10;;;22.10;61.70;;;;;;4991469;28;20045;-68
2023/09/26 11:02:38;;;;;;;2.50;1.05;;;22.60;60.20;;;;;;4985568;28;20035;-70
2023/09/26 11:05:08;;;;;;;2.88;0.98;;;23.00;58.80;;;;;;4987974;28;20084;-68
2023/09/26 11:07:35;;;;;;;4.68;1.30;;;23.00;59.10;;;;;;4993708;28;20025;-69
2023/09/26 11:10:03;;;;;;;1.85;1.00;;;23.00;59.40;;;;;;4988195;28;20069;-68
2023/09/26 11:12:29;;;;;;;3.22;1.15;;;23.40;59.00;;;;;;4988476;28;20538;-69
2023/09/26 11:14:55;;;;;;;1.90;0.95;;;23.70;58.00;;;;;;4990548;28;20408;-68
2023/09/26 11:17:23;;;;;;;10.15;2.13;;;23.70;57.90;;;;;;4984157;28;20026;-69
2023/09/26 11:19:50;;;;;;;4.78;1.25;;;23.50;58.70;;;;;;4988797;28;20034;-68
2023/09/26 11:22:16;;;;;;;1.90;1.10;;;23.40;58.70;;;;;;4995437;28;20034;-69
2023/09/26 11:24:41;;;;;;;1.30;0.93;;;23.40;57.60;;;;;;4987629;28;20045;-69
2023/09/26 11:27:08;;;;;;;2.80;1.10;;;23.50;59.80;;;;;;4981458;28;20041;-69
2023/09/26 11:29:35;;;;;;;2.58;1.20;;;23.20;59.00;;;;;;4985966;28;20035;-69
2023/09/26 11:32:03;;;;;;;2.10;1.20;;;22.90;58.40;;;;;;4987999;28;20034;-69
2023/09/26 11:34:29;;;;;;;5.18;1.40;;;23.10;58.70;;;;;;4990543;28;20077;-69
2023/09/26 11:36:55;;;;;;;2.97;1.25;;;23.30;57.80;;;;;;4990780;28;20027;-69
2023/09/26 11:39:22;;;;;;;2.90;1.10;;;23.10;57.00;;;;;;4986994;28;20382;-72
2023/09/26 11:42:02;;;;;;;3.63;1.30;;;23.10;59.10;;;;;;4987431;28;20383;-70
2023/09/26 11:44:27;;;;;;;1.80;0.90;;;23.80;59.10;;;;;;4985688;28;20471;-71
2023/09/26 11:46:53;;;;;;;1.73;1.00;;;24.10;56.70;;;;;;4986227;28;20108;-69
2023/09/26 11:49:18;;;;;;;1.70;1.10;;;23.70;57.80;;;;;;4992225;28;20029;-69
2023/09/26 11:51:47;;;;;;;1.70;0.90;;;24.00;57.00;;;;;;4991202;28;20045;-68
2023/09/26 11:54:12;;;;;;;2.38;1.10;;;24.20;58.10;;;;;;4985498;28;20494;-70
2023/09/26 11:56:43;;;;;;;3.22;1.05;;;24.50;54.40;;;;;;4990167;28;20042;-70
2023/09/26 11:59:09;;;;;;;2.28;1.20;;;24.50;56.10;;;;;;4982814;28;20199;-70
2023/09/26 12:01:34;;;;;;;1.83;0.82;;;24.80;54.80;;;;;;4986257;28;20038;-70
2023/09/26 12:04:05;;;;;;;2.33;1.20;;;24.90;55.60;;;;;;4984627;28;20057;-69
2023/09/26 12:06:31;;;;;;;2.03;0.85;;;24.80;54.40;;;;;;4988257;28;20049;-69
2023/09/26 12:08:57;;;;;;;3.45;1.20;;;24.70;55.50;;;;;;4983204;28;20475;-69
2023/09/26 12:11:22;;;;;;;2.38;1.15;;;24.70;56.20;;;;;;4986521;28;20514;-69
2023/09/26 12:13:48;;;;;;;3.08;1.08;;;24.60;55.90;;;;;;4985385;28;20249;-70
2023/09/26 12:16:13;;;;;;;2.92;1.10;;;24.90;55.60;;;;;;4983034;28;20443;-70
2023/09/26 12:18:39;;;;;;;6.97;1.33;;;25.40;53.70;;;;;;4988492;28;20042;-69
2023/09/26 12:21:05;;;;;;;5.25;1.63;;;26.00;52.90;;;;;;4986834;28;20042;-69
2023/09/26 12:23:30;;;;;;;3.55;1.10;;;26.00;52.20;;;;;;4985932;28;20058;-69
2023/09/26 12:25:56;;;;;;;3.05;1.10;;;25.90;50.90;;;;;;4981082;28;20081;-68
2023/09/26 12:28:22;;;;;;;2.22;0.80;;;26.00;50.70;;;;;;4980437;28;20471;-68
2023/09/26 12:30:47;;;;;;;2.72;1.13;;;25.60;51.10;;;;;;4982323;28;20073;-70
2023/09/26 12:33:13;;;;;;;1.92;0.90;;;25.70;51.20;;;;;;4980220;28;20026;-69
2023/09/26 12:35:39;;;;;;;1.25;0.85;;;25.30;50.60;;;;;;4983998;28;20483;-67
2023/09/26 12:38:05;;;;;;;2.50;1.10;;;25.80;52.10;;;;;;4984191;28;20283;-68
2023/09/26 12:40:30;;;;;;;2.92;0.80;;;26.20;51.80;;;;;;4985100;28;20061;-68
2023/09/26 12:42:56;;;;;;;1.00;0.80;;;25.50;50.90;;;;;;4987930;28;20034;-68
2023/09/26 12:45:21;;;;;;;2.60;1.20;;;25.20;51.90;;;;;;4985628;28;20161;-68
2023/09/26 12:47:47;;;;;;;2.55;0.90;;;25.00;51.60;;;;;;4983043;28;20429;-68